sensor_id;sensor_type;location;lat;lon;timestamp;temperature;humidity
47813;DHT22;34221;45.296;9.516;2022-08-25T00:00:05;24.40;70.00
47813;DHT22;34221;45.296;9.516;2022-08-25T00:00:42;24.40;70.00
47813;DHT22;34221;45.296;9.516;2022-08-25T00:00:58;24.40;69.70
47813;DHT22;34221;45.296;9.516;2022-08-25T00:01:17;24.40;69.60
47813;DHT22;34221;45.296;9.516;2022-08-25T00:01:55;24.40;70.00
47813;DHT22;34221;45.296;9.516;2022-08-25T00:02:12;24.30;69.90
47813;DHT22;34221;45.296;9.516;2022-08-25T00:02:27;24.30;70.30
47813;DHT22;34221;45.296;9.516;2022-08-25T00:02:43;24.30;70.20
47813;DHT22;34221;45.296;9.516;2022-08-25T00:02:58;24.30;70.00
47813;DHT22;34221;45.296;9.516;2022-08-25T00:03:14;24.30;69.90
47813;DHT22;34221;45.296;9.516;2022-08-25T00:03:30;24.40;70.10
47813;DHT22;34221;45.296;9.516;2022-08-25T00:03:45;24.30;70.20
47813;DHT22;34221;45.296;9.516;2022-08-25T00:04:02;24.30;70.20
47813;DHT22;34221;45.296;9.516;2022-08-25T00:04:20;24.30;70.30
47813;DHT22;34221;45.296;9.516;2022-08-25T00:04:35;24.30;70.30
47813;DHT22;34221;45.296;9.516;2022-08-25T00:04:50;24.30;70.30
47813;DHT22;34221;45.296;9.516;2022-08-25T00:05:05;24.30;70.60
47813;DHT22;34221;45.296;9.516;2022-08-25T00:05:22;24.30;70.20
47813;DHT22;34221;45.296;9.516;2022-08-25T00:05:39;24.30;70.20
47813;DHT22;34221;45.296;9.516;2022-08-25T00:05:54;24.30;70.40
47813;DHT22;34221;45.296;9.516;2022-08-25T00:06:10;24.30;70.20
47813;DHT22;34221;45.296;9.516;2022-08-25T00:06:25;24.30;70.70
47813;DHT22;34221;45.296;9.516;2022-08-25T00:06:42;24.30;70.30
47813;DHT22;34221;45.296;9.516;2022-08-25T00:06:57;24.30;70.30
47813;DHT22;34221;45.296;9.516;2022-08-25T00:07:12;24.30;70.20
47813;DHT22;34221;45.296;9.516;2022-08-25T00:07:27;24.30;70.50
47813;DHT22;34221;45.296;9.516;2022-08-25T00:07:42;24.30;70.30
47813;DHT22;34221;45.296;9.516;2022-08-25T00:07:57;24.30;70.50
47813;DHT22;34221;45.296;9.516;2022-08-25T00:08:12;24.30;70.90
47813;DHT22;34221;45.296;9.516;2022-08-25T00:08:27;24.30;70.50
47813;DHT22;34221;45.296;9.516;2022-08-25T00:08:42;24.30;70.20
47813;DHT22;34221;45.296;9.516;2022-08-25T00:08:58;24.30;70.00
47813;DHT22;34221;45.296;9.516;2022-08-25T00:09:16;24.30;70.20
47813;DHT22;34221;45.296;9.516;2022-08-25T00:09:33;24.30;70.30
47813;DHT22;34221;45.296;9.516;2022-08-25T00:09:48;24.30;70.10
47813;DHT22;34221;45.296;9.516;2022-08-25T00:10:05;24.30;70.10
47813;DHT22;34221;45.296;9.516;2022-08-25T00:10:20;24.30;70.20
47813;DHT22;34221;45.296;9.516;2022-08-25T00:10:37;24.30;70.40
47813;DHT22;34221;45.296;9.516;2022-08-25T00:10:53;24.20;70.20
47813;DHT22;34221;45.296;9.516;2022-08-25T00:11:48;24.30;70.60
47813;DHT22;34221;45.296;9.516;2022-08-25T00:12:05;24.20;70.70
47813;DHT22;34221;45.296;9.516;2022-08-25T00:12:20;24.20;70.30
47813;DHT22;34221;45.296;9.516;2022-08-25T00:12:35;24.20;70.60
47813;DHT22;34221;45.296;9.516;2022-08-25T00:12:50;24.20;70.40
47813;DHT22;34221;45.296;9.516;2022-08-25T00:13:05;24.20;70.80
47813;DHT22;34221;45.296;9.516;2022-08-25T00:13:20;24.20;70.50
47813;DHT22;34221;45.296;9.516;2022-08-25T00:13:35;24.20;70.50
47813;DHT22;34221;45.296;9.516;2022-08-25T00:13:54;24.20;70.70
47813;DHT22;34221;45.296;9.516;2022-08-25T00:14:18;24.20;71.00
47813;DHT22;34221;45.296;9.516;2022-08-25T00:14:36;24.20;71.00
47813;DHT22;34221;45.296;9.516;2022-08-25T00:14:51;24.20;70.80
47813;DHT22;34221;45.296;9.516;2022-08-25T00:15:07;24.20;70.80
47813;DHT22;34221;45.296;9.516;2022-08-25T00:15:23;24.20;71.30
47813;DHT22;34221;45.296;9.516;2022-08-25T00:15:38;24.20;70.70
47813;DHT22;34221;45.296;9.516;2022-08-25T00:15:54;24.20;70.50
47813;DHT22;34221;45.296;9.516;2022-08-25T00:16:10;24.20;70.80
47813;DHT22;34221;45.296;9.516;2022-08-25T00:16:25;24.20;70.50
47813;DHT22;34221;45.296;9.516;2022-08-25T00:16:41;24.20;70.50
47813;DHT22;34221;45.296;9.516;2022-08-25T00:16:58;24.20;70.70
47813;DHT22;34221;45.296;9.516;2022-08-25T00:17:13;24.20;70.60
47813;DHT22;34221;45.296;9.516;2022-08-25T00:17:28;24.10;70.90
47813;DHT22;34221;45.296;9.516;2022-08-25T00:17:42;24.20;71.30
47813;DHT22;34221;45.296;9.516;2022-08-25T00:17:58;24.20;71.30
47813;DHT22;34221;45.296;9.516;2022-08-25T00:18:13;24.10;70.90
47813;DHT22;34221;45.296;9.516;2022-08-25T00:18:28;24.20;70.80
47813;DHT22;34221;45.296;9.516;2022-08-25T00:18:45;24.10;70.90
47813;DHT22;34221;45.296;9.516;2022-08-25T00:19:08;24.20;71.00
47813;DHT22;34221;45.296;9.516;2022-08-25T00:19:28;24.20;71.00
47813;DHT22;34221;45.296;9.516;2022-08-25T00:19:45;24.10;71.40
47813;DHT22;34221;45.296;9.516;2022-08-25T00:20:00;24.10;71.10
47813;DHT22;34221;45.296;9.516;2022-08-25T00:20:15;24.10;71.10
47813;DHT22;34221;45.296;9.516;2022-08-25T00:20:30;24.10;70.80
47813;DHT22;34221;45.296;9.516;2022-08-25T00:20:46;24.20;71.10
47813;DHT22;34221;45.296;9.516;2022-08-25T00:21:03;24.20;71.00
47813;DHT22;34221;45.296;9.516;2022-08-25T00:21:18;24.20;70.90
47813;DHT22;34221;45.296;9.516;2022-08-25T00:21:33;24.10;72.10
47813;DHT22;34221;45.296;9.516;2022-08-25T00:21:49;24.10;70.90
47813;DHT22;34221;45.296;9.516;2022-08-25T00:22:05;24.20;70.80
47813;DHT22;34221;45.296;9.516;2022-08-25T00:22:21;24.10;71.00
47813;DHT22;34221;45.296;9.516;2022-08-25T00:22:36;24.10;71.10
47813;DHT22;34221;45.296;9.516;2022-08-25T00:22:51;24.20;71.10
47813;DHT22;34221;45.296;9.516;2022-08-25T00:23:06;24.10;71.00
47813;DHT22;34221;45.296;9.516;2022-08-25T00:23:21;24.10;71.40
47813;DHT22;34221;45.296;9.516;2022-08-25T00:23:36;24.10;71.10
47813;DHT22;34221;45.296;9.516;2022-08-25T00:23:52;24.10;71.10
47813;DHT22;34221;45.296;9.516;2022-08-25T00:24:08;24.10;71.50
47813;DHT22;34221;45.296;9.516;2022-08-25T00:24:24;24.10;71.10
47813;DHT22;34221;45.296;9.516;2022-08-25T00:24:39;24.10;71.50
47813;DHT22;34221;45.296;9.516;2022-08-25T00:24:54;24.10;71.50
47813;DHT22;34221;45.296;9.516;2022-08-25T00:25:09;24.10;71.50
47813;DHT22;34221;45.296;9.516;2022-08-25T00:25:24;24.10;71.90
47813;DHT22;34221;45.296;9.516;2022-08-25T00:25:39;24.10;71.60
47813;DHT22;34221;45.296;9.516;2022-08-25T00:25:54;24.10;71.40
47813;DHT22;34221;45.296;9.516;2022-08-25T00:26:09;24.10;71.60
47813;DHT22;34221;45.296;9.516;2022-08-25T00:26:25;24.10;71.30
47813;DHT22;34221;45.296;9.516;2022-08-25T00:26:43;24.10;71.40
47813;DHT22;34221;45.296;9.516;2022-08-25T00:27:00;24.10;71.20
47813;DHT22;34221;45.296;9.516;2022-08-25T00:27:15;24.10;71.70
47813;DHT22;34221;45.296;9.516;2022-08-25T00:27:31;24.00;71.70
47813;DHT22;34221;45.296;9.516;2022-08-25T00:27:46;24.00;71.60
47813;DHT22;34221;45.296;9.516;2022-08-25T00:28:02;24.00;71.60
47813;DHT22;34221;45.296;9.516;2022-08-25T00:28:17;24.00;71.30
47813;DHT22;34221;45.296;9.516;2022-08-25T00:28:32;24.00;71.80
47813;DHT22;34221;45.296;9.516;2022-08-25T00:28:47;24.00;71.80
47813;DHT22;34221;45.296;9.516;2022-08-25T00:29:03;24.00;72.00
47813;DHT22;34221;45.296;9.516;2022-08-25T00:29:18;24.00;71.70
47813;DHT22;34221;45.296;9.516;2022-08-25T00:29:33;24.00;71.80
47813;DHT22;34221;45.296;9.516;2022-08-25T00:29:51;24.10;71.80
47813;DHT22;34221;45.296;9.516;2022-08-25T00:30:07;24.00;71.70
47813;DHT22;34221;45.296;9.516;2022-08-25T00:30:22;24.00;71.80
47813;DHT22;34221;45.296;9.516;2022-08-25T00:30:38;24.00;71.80
47813;DHT22;34221;45.296;9.516;2022-08-25T00:30:53;24.00;71.70
47813;DHT22;34221;45.296;9.516;2022-08-25T00:31:13;24.00;72.30
47813;DHT22;34221;45.296;9.516;2022-08-25T00:31:30;24.00;71.50
47813;DHT22;34221;45.296;9.516;2022-08-25T00:31:46;24.00;72.10
47813;DHT22;34221;45.296;9.516;2022-08-25T00:32:01;24.00;72.20
47813;DHT22;34221;45.296;9.516;2022-08-25T00:32:20;24.00;72.00
47813;DHT22;34221;45.296;9.516;2022-08-25T00:32:35;24.10;71.90
47813;DHT22;34221;45.296;9.516;2022-08-25T00:32:50;24.00;72.20
47813;DHT22;34221;45.296;9.516;2022-08-25T00:33:05;24.00;72.00
47813;DHT22;34221;45.296;9.516;2022-08-25T00:33:21;24.00;72.10
47813;DHT22;34221;45.296;9.516;2022-08-25T00:33:36;24.00;72.10
47813;DHT22;34221;45.296;9.516;2022-08-25T00:33:53;24.00;71.80
47813;DHT22;34221;45.296;9.516;2022-08-25T00:34:12;24.00;71.80
47813;DHT22;34221;45.296;9.516;2022-08-25T00:34:52;24.00;71.60
47813;DHT22;34221;45.296;9.516;2022-08-25T00:35:07;24.00;71.80
47813;DHT22;34221;45.296;9.516;2022-08-25T00:35:22;24.00;72.30
47813;DHT22;34221;45.296;9.516;2022-08-25T00:35:40;24.00;72.10
47813;DHT22;34221;45.296;9.516;2022-08-25T00:35:56;24.00;72.10
47813;DHT22;34221;45.296;9.516;2022-08-25T00:36:13;23.90;71.70
47813;DHT22;34221;45.296;9.516;2022-08-25T00:36:29;23.90;71.90
47813;DHT22;34221;45.296;9.516;2022-08-25T00:36:44;23.90;72.50
47813;DHT22;34221;45.296;9.516;2022-08-25T00:37:03;23.90;72.10
47813;DHT22;34221;45.296;9.516;2022-08-25T00:37:20;23.90;71.90
47813;DHT22;34221;45.296;9.516;2022-08-25T00:37:35;23.90;72.20
47813;DHT22;34221;45.296;9.516;2022-08-25T00:37:52;24.00;72.80
47813;DHT22;34221;45.296;9.516;2022-08-25T00:38:08;23.90;72.50
47813;DHT22;34221;45.296;9.516;2022-08-25T00:38:24;24.00;72.10
47813;DHT22;34221;45.296;9.516;2022-08-25T00:38:42;23.90;72.10
47813;DHT22;34221;45.296;9.516;2022-08-25T00:38:58;24.00;72.30
47813;DHT22;34221;45.296;9.516;2022-08-25T00:39:13;24.00;72.00
47813;DHT22;34221;45.296;9.516;2022-08-25T00:39:29;23.90;72.00
47813;DHT22;34221;45.296;9.516;2022-08-25T00:39:44;23.90;72.30
47813;DHT22;34221;45.296;9.516;2022-08-25T00:39:59;24.00;73.30
47813;DHT22;34221;45.296;9.516;2022-08-25T00:40:14;23.90;72.30
47813;DHT22;34221;45.296;9.516;2022-08-25T00:40:29;23.90;72.10
47813;DHT22;34221;45.296;9.516;2022-08-25T00:40:44;24.00;72.00
47813;DHT22;34221;45.296;9.516;2022-08-25T00:40:59;23.90;72.10
47813;DHT22;34221;45.296;9.516;2022-08-25T00:41:23;24.00;72.10
47813;DHT22;34221;45.296;9.516;2022-08-25T00:41:40;24.00;72.50
47813;DHT22;34221;45.296;9.516;2022-08-25T00:41:56;23.90;72.70
47813;DHT22;34221;45.296;9.516;2022-08-25T00:42:12;24.00;72.40
47813;DHT22;34221;45.296;9.516;2022-08-25T00:42:27;23.90;71.90
47813;DHT22;34221;45.296;9.516;2022-08-25T00:42:42;23.90;72.30
47813;DHT22;34221;45.296;9.516;2022-08-25T00:42:57;23.90;72.30
47813;DHT22;34221;45.296;9.516;2022-08-25T00:43:12;23.90;71.90
47813;DHT22;34221;45.296;9.516;2022-08-25T00:43:33;23.90;71.90
47813;DHT22;34221;45.296;9.516;2022-08-25T00:43:59;23.90;72.10
47813;DHT22;34221;45.296;9.516;2022-08-25T00:44:15;23.90;72.20
47813;DHT22;34221;45.296;9.516;2022-08-25T00:44:33;23.90;72.70
47813;DHT22;34221;45.296;9.516;2022-08-25T00:44:48;23.90;72.40
47813;DHT22;34221;45.296;9.516;2022-08-25T00:45:06;23.90;72.10
47813;DHT22;34221;45.296;9.516;2022-08-25T00:45:22;23.90;72.30
47813;DHT22;34221;45.296;9.516;2022-08-25T00:45:38;23.90;72.70
47813;DHT22;34221;45.296;9.516;2022-08-25T00:45:54;23.90;72.60
47813;DHT22;34221;45.296;9.516;2022-08-25T00:46:10;23.90;72.30
47813;DHT22;34221;45.296;9.516;2022-08-25T00:46:36;23.90;72.10
47813;DHT22;34221;45.296;9.516;2022-08-25T00:46:58;23.90;72.30
47813;DHT22;34221;45.296;9.516;2022-08-25T00:47:14;23.90;72.30
47813;DHT22;34221;45.296;9.516;2022-08-25T00:47:29;23.90;73.00
47813;DHT22;34221;45.296;9.516;2022-08-25T00:47:44;23.90;72.60
47813;DHT22;34221;45.296;9.516;2022-08-25T00:48:00;23.90;72.20
47813;DHT22;34221;45.296;9.516;2022-08-25T00:48:15;23.90;72.20
47813;DHT22;34221;45.296;9.516;2022-08-25T00:48:30;23.90;72.20
47813;DHT22;34221;45.296;9.516;2022-08-25T00:48:48;23.90;72.50
47813;DHT22;34221;45.296;9.516;2022-08-25T00:49:35;23.90;72.50
47813;DHT22;34221;45.296;9.516;2022-08-25T00:49:56;23.90;72.30
47813;DHT22;34221;45.296;9.516;2022-08-25T00:50:12;23.90;72.90
47813;DHT22;34221;45.296;9.516;2022-08-25T00:50:29;23.90;72.50
47813;DHT22;34221;45.296;9.516;2022-08-25T00:50:45;23.90;72.20
47813;DHT22;34221;45.296;9.516;2022-08-25T00:51:02;23.90;72.20
47813;DHT22;34221;45.296;9.516;2022-08-25T00:51:26;23.90;72.80
47813;DHT22;34221;45.296;9.516;2022-08-25T00:51:57;23.90;72.60
47813;DHT22;34221;45.296;9.516;2022-08-25T00:52:27;23.90;72.50
47813;DHT22;34221;45.296;9.516;2022-08-25T00:52:52;23.90;72.30
47813;DHT22;34221;45.296;9.516;2022-08-25T00:53:08;23.90;72.60
47813;DHT22;34221;45.296;9.516;2022-08-25T00:53:23;23.90;72.20
47813;DHT22;34221;45.296;9.516;2022-08-25T00:53:39;23.80;72.70
47813;DHT22;34221;45.296;9.516;2022-08-25T00:53:55;23.90;72.60
47813;DHT22;34221;45.296;9.516;2022-08-25T00:54:15;23.80;72.30
47813;DHT22;34221;45.296;9.516;2022-08-25T00:54:48;23.80;72.90
47813;DHT22;34221;45.296;9.516;2022-08-25T00:55:19;23.90;72.70
47813;DHT22;34221;45.296;9.516;2022-08-25T00:55:38;23.80;72.60
47813;DHT22;34221;45.296;9.516;2022-08-25T00:55:53;23.80;72.40
47813;DHT22;34221;45.296;9.516;2022-08-25T00:56:09;23.90;72.30
47813;DHT22;34221;45.296;9.516;2022-08-25T00:56:27;23.80;72.60
47813;DHT22;34221;45.296;9.516;2022-08-25T00:56:43;23.80;72.30
47813;DHT22;34221;45.296;9.516;2022-08-25T00:56:59;23.80;72.40
47813;DHT22;34221;45.296;9.516;2022-08-25T00:57:18;23.80;72.30
47813;DHT22;34221;45.296;9.516;2022-08-25T00:57:43;23.80;73.00
47813;DHT22;34221;45.296;9.516;2022-08-25T00:58:33;23.80;72.50
47813;DHT22;34221;45.296;9.516;2022-08-25T00:58:49;23.80;73.20
47813;DHT22;34221;45.296;9.516;2022-08-25T00:59:04;23.90;72.80
47813;DHT22;34221;45.296;9.516;2022-08-25T00:59:21;23.80;72.60
47813;DHT22;34221;45.296;9.516;2022-08-25T00:59:37;23.80;72.60
47813;DHT22;34221;45.296;9.516;2022-08-25T00:59:52;23.90;72.60
47813;DHT22;34221;45.296;9.516;2022-08-25T01:00:22;23.80;72.40
47813;DHT22;34221;45.296;9.516;2022-08-25T01:00:52;23.80;72.80
47813;DHT22;34221;45.296;9.516;2022-08-25T01:01:09;23.80;72.90
47813;DHT22;34221;45.296;9.516;2022-08-25T01:01:25;23.80;72.50
47813;DHT22;34221;45.296;9.516;2022-08-25T01:01:40;23.80;72.50
47813;DHT22;34221;45.296;9.516;2022-08-25T01:01:56;23.80;72.70
47813;DHT22;34221;45.296;9.516;2022-08-25T01:02:14;23.90;72.90
47813;DHT22;34221;45.296;9.516;2022-08-25T01:02:29;23.80;72.50
47813;DHT22;34221;45.296;9.516;2022-08-25T01:02:44;23.80;72.60
47813;DHT22;34221;45.296;9.516;2022-08-25T01:02:59;23.80;72.70
47813;DHT22;34221;45.296;9.516;2022-08-25T01:03:16;23.80;72.70
47813;DHT22;34221;45.296;9.516;2022-08-25T01:03:32;23.80;72.60
47813;DHT22;34221;45.296;9.516;2022-08-25T01:03:48;23.80;72.80
47813;DHT22;34221;45.296;9.516;2022-08-25T01:04:04;23.80;72.90
47813;DHT22;34221;45.296;9.516;2022-08-25T01:04:19;23.80;73.00
47813;DHT22;34221;45.296;9.516;2022-08-25T01:04:35;23.80;72.70
47813;DHT22;34221;45.296;9.516;2022-08-25T01:04:51;23.80;73.00
47813;DHT22;34221;45.296;9.516;2022-08-25T01:05:06;23.80;72.60
47813;DHT22;34221;45.296;9.516;2022-08-25T01:05:22;23.80;72.60
47813;DHT22;34221;45.296;9.516;2022-08-25T01:05:39;23.80;72.60
47813;DHT22;34221;45.296;9.516;2022-08-25T01:05:55;23.80;72.80
47813;DHT22;34221;45.296;9.516;2022-08-25T01:06:11;23.80;73.40
47813;DHT22;34221;45.296;9.516;2022-08-25T01:06:29;23.80;72.80
47813;DHT22;34221;45.296;9.516;2022-08-25T01:06:47;23.80;72.70
47813;DHT22;34221;45.296;9.516;2022-08-25T01:07:03;23.80;72.40
47813;DHT22;34221;45.296;9.516;2022-08-25T01:07:19;23.80;72.40
47813;DHT22;34221;45.296;9.516;2022-08-25T01:07:37;23.80;72.60
47813;DHT22;34221;45.296;9.516;2022-08-25T01:07:55;23.80;72.70
47813;DHT22;34221;45.296;9.516;2022-08-25T01:08:11;23.80;73.20
47813;DHT22;34221;45.296;9.516;2022-08-25T01:08:27;23.80;73.40
47813;DHT22;34221;45.296;9.516;2022-08-25T01:08:43;23.80;72.90
47813;DHT22;34221;45.296;9.516;2022-08-25T01:08:58;23.80;72.90
47813;DHT22;34221;45.296;9.516;2022-08-25T01:09:14;23.80;73.30
47813;DHT22;34221;45.296;9.516;2022-08-25T01:09:30;23.80;73.20
47813;DHT22;34221;45.296;9.516;2022-08-25T01:09:47;23.80;72.60
47813;DHT22;34221;45.296;9.516;2022-08-25T01:10:05;23.80;72.80
47813;DHT22;34221;45.296;9.516;2022-08-25T01:10:23;23.80;72.70
47813;DHT22;34221;45.296;9.516;2022-08-25T01:10:42;23.80;73.20
47813;DHT22;34221;45.296;9.516;2022-08-25T01:10:59;23.80;73.30
47813;DHT22;34221;45.296;9.516;2022-08-25T01:11:17;23.80;73.10
47813;DHT22;34221;45.296;9.516;2022-08-25T01:11:33;23.80;72.70
47813;DHT22;34221;45.296;9.516;2022-08-25T01:11:48;23.80;73.20
47813;DHT22;34221;45.296;9.516;2022-08-25T01:12:03;23.80;73.10
47813;DHT22;34221;45.296;9.516;2022-08-25T01:12:19;23.80;73.40
47813;DHT22;34221;45.296;9.516;2022-08-25T01:12:36;23.80;73.30
47813;DHT22;34221;45.296;9.516;2022-08-25T01:12:52;23.80;73.10
47813;DHT22;34221;45.296;9.516;2022-08-25T01:13:18;23.80;73.40
47813;DHT22;34221;45.296;9.516;2022-08-25T01:13:43;23.80;72.80
47813;DHT22;34221;45.296;9.516;2022-08-25T01:14:01;23.70;73.20
47813;DHT22;34221;45.296;9.516;2022-08-25T01:14:20;23.70;72.90
47813;DHT22;34221;45.296;9.516;2022-08-25T01:14:37;23.70;72.80
47813;DHT22;34221;45.296;9.516;2022-08-25T01:14:54;23.70;74.00
47813;DHT22;34221;45.296;9.516;2022-08-25T01:15:12;23.70;73.20
47813;DHT22;34221;45.296;9.516;2022-08-25T01:15:28;23.70;72.70
47813;DHT22;34221;45.296;9.516;2022-08-25T01:15:45;23.70;72.90
47813;DHT22;34221;45.296;9.516;2022-08-25T01:16:00;23.70;72.80
47813;DHT22;34221;45.296;9.516;2022-08-25T01:16:16;23.70;73.20
47813;DHT22;34221;45.296;9.516;2022-08-25T01:16:33;23.70;73.00
47813;DHT22;34221;45.296;9.516;2022-08-25T01:16:49;23.70;73.00
47813;DHT22;34221;45.296;9.516;2022-08-25T01:17:23;23.70;73.20
47813;DHT22;34221;45.296;9.516;2022-08-25T01:17:50;23.70;73.40
47813;DHT22;34221;45.296;9.516;2022-08-25T01:18:06;23.70;73.40
47813;DHT22;34221;45.296;9.516;2022-08-25T01:18:23;23.70;73.00
47813;DHT22;34221;45.296;9.516;2022-08-25T01:18:57;23.70;73.00
47813;DHT22;34221;45.296;9.516;2022-08-25T01:19:14;23.70;73.20
47813;DHT22;34221;45.296;9.516;2022-08-25T01:19:30;23.70;73.10
47813;DHT22;34221;45.296;9.516;2022-08-25T01:19:47;23.70;73.40
47813;DHT22;34221;45.296;9.516;2022-08-25T01:20:03;23.60;74.20
47813;DHT22;34221;45.296;9.516;2022-08-25T01:20:22;23.60;73.10
47813;DHT22;34221;45.296;9.516;2022-08-25T01:20:38;23.70;73.20
47813;DHT22;34221;45.296;9.516;2022-08-25T01:20:55;23.70;73.20
47813;DHT22;34221;45.296;9.516;2022-08-25T01:21:12;23.70;73.10
47813;DHT22;34221;45.296;9.516;2022-08-25T01:21:30;23.60;73.40
47813;DHT22;34221;45.296;9.516;2022-08-25T01:21:48;23.60;73.40
47813;DHT22;34221;45.296;9.516;2022-08-25T01:22:05;23.60;73.30
47813;DHT22;34221;45.296;9.516;2022-08-25T01:22:20;23.60;73.40
47813;DHT22;34221;45.296;9.516;2022-08-25T01:22:35;23.70;73.50
47813;DHT22;34221;45.296;9.516;2022-08-25T01:22:51;23.60;73.50
47813;DHT22;34221;45.296;9.516;2022-08-25T01:23:06;23.60;73.40
47813;DHT22;34221;45.296;9.516;2022-08-25T01:23:22;23.60;74.00
47813;DHT22;34221;45.296;9.516;2022-08-25T01:23:38;23.60;73.30
47813;DHT22;34221;45.296;9.516;2022-08-25T01:23:54;23.60;73.20
47813;DHT22;34221;45.296;9.516;2022-08-25T01:24:19;23.60;73.60
47813;DHT22;34221;45.296;9.516;2022-08-25T01:24:56;23.60;73.50
47813;DHT22;34221;45.296;9.516;2022-08-25T01:26:00;23.60;74.60
47813;DHT22;34221;45.296;9.516;2022-08-25T01:26:24;23.60;73.40
47813;DHT22;34221;45.296;9.516;2022-08-25T01:26:40;23.60;73.10
47813;DHT22;34221;45.296;9.516;2022-08-25T01:26:56;23.60;73.30
47813;DHT22;34221;45.296;9.516;2022-08-25T01:27:12;23.60;73.80
47813;DHT22;34221;45.296;9.516;2022-08-25T01:27:26;23.60;73.80
47813;DHT22;34221;45.296;9.516;2022-08-25T01:27:41;23.60;73.50
47813;DHT22;34221;45.296;9.516;2022-08-25T01:27:56;23.60;73.30
47813;DHT22;34221;45.296;9.516;2022-08-25T01:28:12;23.60;73.50
47813;DHT22;34221;45.296;9.516;2022-08-25T01:28:28;23.60;73.60
47813;DHT22;34221;45.296;9.516;2022-08-25T01:28:45;23.60;73.10
47813;DHT22;34221;45.296;9.516;2022-08-25T01:29:19;23.60;73.10
47813;DHT22;34221;45.296;9.516;2022-08-25T01:29:41;23.60;73.30
47813;DHT22;34221;45.296;9.516;2022-08-25T01:29:56;23.60;73.30
47813;DHT22;34221;45.296;9.516;2022-08-25T01:30:11;23.60;73.30
47813;DHT22;34221;45.296;9.516;2022-08-25T01:30:26;23.60;73.10
47813;DHT22;34221;45.296;9.516;2022-08-25T01:30:42;23.60;73.20
47813;DHT22;34221;45.296;9.516;2022-08-25T01:30:57;23.60;73.30
47813;DHT22;34221;45.296;9.516;2022-08-25T01:31:12;23.60;73.50
47813;DHT22;34221;45.296;9.516;2022-08-25T01:31:28;23.50;73.70
47813;DHT22;34221;45.296;9.516;2022-08-25T01:31:43;23.60;73.30
47813;DHT22;34221;45.296;9.516;2022-08-25T01:32:02;23.50;73.30
47813;DHT22;34221;45.296;9.516;2022-08-25T01:32:18;23.50;73.70
47813;DHT22;34221;45.296;9.516;2022-08-25T01:32:34;23.50;73.80
47813;DHT22;34221;45.296;9.516;2022-08-25T01:32:49;23.50;73.40
47813;DHT22;34221;45.296;9.516;2022-08-25T01:33:05;23.50;73.50
47813;DHT22;34221;45.296;9.516;2022-08-25T01:33:22;23.50;73.70
47813;DHT22;34221;45.296;9.516;2022-08-25T01:33:37;23.60;73.40
47813;DHT22;34221;45.296;9.516;2022-08-25T01:33:52;23.50;73.70
47813;DHT22;34221;45.296;9.516;2022-08-25T01:34:08;23.50;74.40
47813;DHT22;34221;45.296;9.516;2022-08-25T01:34:29;23.50;73.40
47813;DHT22;34221;45.296;9.516;2022-08-25T01:34:45;23.60;73.50
47813;DHT22;34221;45.296;9.516;2022-08-25T01:35:00;23.50;73.40
47813;DHT22;34221;45.296;9.516;2022-08-25T01:35:15;23.50;73.60
47813;DHT22;34221;45.296;9.516;2022-08-25T01:35:30;23.50;73.20
47813;DHT22;34221;45.296;9.516;2022-08-25T01:35:46;23.50;73.10
47813;DHT22;34221;45.296;9.516;2022-08-25T01:36:01;23.50;73.30
47813;DHT22;34221;45.296;9.516;2022-08-25T01:36:18;23.50;73.20
47813;DHT22;34221;45.296;9.516;2022-08-25T01:36:34;23.50;73.30
47813;DHT22;34221;45.296;9.516;2022-08-25T01:36:50;23.60;73.10
47813;DHT22;34221;45.296;9.516;2022-08-25T01:37:07;23.50;73.00
47813;DHT22;34221;45.296;9.516;2022-08-25T01:37:22;23.50;73.70
47813;DHT22;34221;45.296;9.516;2022-08-25T01:37:37;23.50;73.50
47813;DHT22;34221;45.296;9.516;2022-08-25T01:37:52;23.50;73.50
47813;DHT22;34221;45.296;9.516;2022-08-25T01:38:07;23.50;74.00
47813;DHT22;34221;45.296;9.516;2022-08-25T01:38:23;23.50;73.20
47813;DHT22;34221;45.296;9.516;2022-08-25T01:38:37;23.50;73.50
47813;DHT22;34221;45.296;9.516;2022-08-25T01:38:53;23.50;73.40
47813;DHT22;34221;45.296;9.516;2022-08-25T01:39:09;23.50;73.50
47813;DHT22;34221;45.296;9.516;2022-08-25T01:39:26;23.50;74.60
47813;DHT22;34221;45.296;9.516;2022-08-25T01:39:43;23.50;73.50
47813;DHT22;34221;45.296;9.516;2022-08-25T01:39:58;23.50;73.30
47813;DHT22;34221;45.296;9.516;2022-08-25T01:40:13;23.50;73.50
47813;DHT22;34221;45.296;9.516;2022-08-25T01:40:28;23.50;73.70
47813;DHT22;34221;45.296;9.516;2022-08-25T01:40:44;23.50;73.70
47813;DHT22;34221;45.296;9.516;2022-08-25T01:40:58;23.50;73.50
47813;DHT22;34221;45.296;9.516;2022-08-25T01:43:36;23.50;73.50
47813;DHT22;34221;45.296;9.516;2022-08-25T01:43:52;23.40;73.80
47813;DHT22;34221;45.296;9.516;2022-08-25T01:44:07;23.40;73.50
47813;DHT22;34221;45.296;9.516;2022-08-25T01:44:22;23.40;73.70
47813;DHT22;34221;45.296;9.516;2022-08-25T01:44:41;23.40;73.80
47813;DHT22;34221;45.296;9.516;2022-08-25T01:44:57;23.40;73.80
47813;DHT22;34221;45.296;9.516;2022-08-25T01:45:13;23.40;73.90
47813;DHT22;34221;45.296;9.516;2022-08-25T01:45:28;23.40;73.70
47813;DHT22;34221;45.296;9.516;2022-08-25T01:45:45;23.40;73.70
47813;DHT22;34221;45.296;9.516;2022-08-25T01:46:01;23.40;73.70
47813;DHT22;34221;45.296;9.516;2022-08-25T01:46:16;23.40;73.90
47813;DHT22;34221;45.296;9.516;2022-08-25T01:46:31;23.40;74.00
47813;DHT22;34221;45.296;9.516;2022-08-25T01:46:47;23.40;73.90
47813;DHT22;34221;45.296;9.516;2022-08-25T01:47:04;23.40;74.00
47813;DHT22;34221;45.296;9.516;2022-08-25T01:47:19;23.40;74.00
47813;DHT22;34221;45.296;9.516;2022-08-25T01:47:35;23.40;74.00
47813;DHT22;34221;45.296;9.516;2022-08-25T01:47:51;23.40;74.10
47813;DHT22;34221;45.296;9.516;2022-08-25T01:48:07;23.40;74.70
47813;DHT22;34221;45.296;9.516;2022-08-25T01:48:22;23.30;74.50
47813;DHT22;34221;45.296;9.516;2022-08-25T01:48:37;23.30;74.10
47813;DHT22;34221;45.296;9.516;2022-08-25T01:48:52;23.30;74.00
47813;DHT22;34221;45.296;9.516;2022-08-25T01:49:08;23.30;74.10
47813;DHT22;34221;45.296;9.516;2022-08-25T01:49:24;23.30;74.10
47813;DHT22;34221;45.296;9.516;2022-08-25T01:49:39;23.30;74.40
47813;DHT22;34221;45.296;9.516;2022-08-25T01:49:54;23.30;74.40
47813;DHT22;34221;45.296;9.516;2022-08-25T01:50:09;23.30;74.30
47813;DHT22;34221;45.296;9.516;2022-08-25T01:50:24;23.30;74.10
47813;DHT22;34221;45.296;9.516;2022-08-25T01:50:41;23.40;74.40
47813;DHT22;34221;45.296;9.516;2022-08-25T01:50:57;23.30;74.00
47813;DHT22;34221;45.296;9.516;2022-08-25T01:51:16;23.30;74.00
47813;DHT22;34221;45.296;9.516;2022-08-25T01:51:51;23.30;74.10
47813;DHT22;34221;45.296;9.516;2022-08-25T01:52:31;23.40;74.20
47813;DHT22;34221;45.296;9.516;2022-08-25T01:52:55;23.40;74.50